createdAt,value
2023-04-12T00:00:15.368Z,34.15
2023-04-12T00:02:45.262Z,32.03
2023-04-12T00:05:15.569Z,31.27
2023-04-12T00:07:47.042Z,33.65
2023-04-12T00:10:19.090Z,42.40
2023-04-12T00:12:53.129Z,34.75
2023-04-12T00:15:19.934Z,41.05
2023-04-12T00:17:47.061Z,32.33
2023-04-12T00:20:16.571Z,32.03
2023-04-12T00:22:46.760Z,42.60
2023-04-12T00:25:14.186Z,41.70
2023-04-12T00:27:43.990Z,34.85
2023-04-12T00:30:11.944Z,43.85
2023-04-12T00:32:59.204Z,38.90
2023-04-12T00:35:31.632Z,44.60
2023-04-12T00:38:02.924Z,39.10
2023-04-12T00:40:29.866Z,33.72
2023-04-12T00:42:57.325Z,37.03
2023-04-12T00:45:33.151Z,34.00
2023-04-12T00:48:00.081Z,36.45
2023-04-12T00:50:32.973Z,41.13
2023-04-12T00:52:59.902Z,37.65
2023-04-12T00:55:33.096Z,38.40
2023-04-12T00:58:03.531Z,39.53
2023-04-12T01:00:34.688Z,47.78
2023-04-12T01:03:13.796Z,35.92
2023-04-12T01:06:19.549Z,42.97
2023-04-12T01:09:11.436Z,41.35
2023-04-12T01:12:46.920Z,41.35
2023-04-12T01:15:22.305Z,63.40
2023-04-12T01:18:35.914Z,46.97
2023-04-12T01:21:18.634Z,51.45
2023-04-12T01:24:04.240Z,52.22
2023-04-12T01:26:45.718Z,45.45
2023-04-12T01:29:18.071Z,51.95
2023-04-12T01:32:11.107Z,47.03
2023-04-12T01:34:53.914Z,47.13
2023-04-12T01:37:26.288Z,48.45
2023-04-12T01:39:53.428Z,40.58
2023-04-12T01:42:21.327Z,47.80
2023-04-12T01:44:53.694Z,44.05
2023-04-12T01:47:20.880Z,51.67
2023-04-12T01:50:59.121Z,45.38
2023-04-12T01:53:55.160Z,38.15
2023-04-12T01:56:36.070Z,49.80
2023-04-12T01:59:06.227Z,46.97
2023-04-12T02:01:39.001Z,38.78
2023-04-12T02:04:12.103Z,40.75
2023-04-12T02:06:48.942Z,46.53
2023-04-12T02:09:24.140Z,45.20
2023-04-12T02:11:51.118Z,43.92
2023-04-12T02:14:34.441Z,46.10
2023-04-12T02:17:04.617Z,45.97
2023-04-12T02:19:34.699Z,51.92
2023-04-12T02:22:35.986Z,47.08
2023-04-12T02:25:06.695Z,50.85
2023-04-12T02:27:49.011Z,45.13
2023-04-12T02:30:17.461Z,48.72
2023-04-12T02:32:49.849Z,49.00
2023-04-12T02:35:18.850Z,53.17
2023-04-12T02:37:48.646Z,53.95
2023-04-12T02:40:19.562Z,55.90
2023-04-12T02:42:46.412Z,48.88
2023-04-12T02:45:15.284Z,58.70
2023-04-12T02:47:47.541Z,58.42
2023-04-12T02:50:17.527Z,53.42
2023-04-12T02:52:44.293Z,56.17
2023-04-12T02:55:11.080Z,49.95
2023-04-12T02:57:48.541Z,55.22
2023-04-12T03:00:18.573Z,57.42
2023-04-12T03:02:53.508Z,52.00
2023-04-12T03:05:20.677Z,59.42
2023-04-12T03:07:49.288Z,66.75
2023-04-12T03:10:23.681Z,61.67
2023-04-12T03:12:53.315Z,68.78
2023-04-12T03:15:37.727Z,61.80
2023-04-12T03:18:07.721Z,74.78
2023-04-12T03:20:47.836Z,54.47
2023-04-12T03:23:15.071Z,55.55
2023-04-12T03:25:45.370Z,66.07
2023-04-12T03:28:14.850Z,56.22
2023-04-12T03:30:51.125Z,60.88
2023-04-12T03:33:21.102Z,60.67
2023-04-12T03:35:49.333Z,46.15
2023-04-12T03:38:17.500Z,50.45
2023-04-12T03:40:51.615Z,54.83
2023-04-12T03:43:26.031Z,57.97
2023-04-12T03:45:53.003Z,60.90
2023-04-12T03:51:08.629Z,47.90
2023-04-12T03:53:51.015Z,48.72
2023-04-12T03:56:25.220Z,43.88
2023-04-12T03:58:53.354Z,49.10
2023-04-12T04:01:26.276Z,44.40
2023-04-12T04:03:58.143Z,37.88
2023-04-12T04:06:29.857Z,37.13
2023-04-12T04:09:00.339Z,44.95
2023-04-12T04:11:47.505Z,34.97
2023-04-12T04:14:14.600Z,44.05
2023-04-12T04:16:46.134Z,39.85
2023-04-12T04:19:15.472Z,32.25
2023-04-12T04:21:45.284Z,32.97
2023-04-12T04:24:22.486Z,33.70
2023-04-12T04:26:50.446Z,28.23
2023-04-12T04:29:23.804Z,24.50
2023-04-12T04:31:56.012Z,45.80
2023-04-12T04:34:23.369Z,20.77
2023-04-12T04:36:59.338Z,29.20
2023-04-12T04:39:29.526Z,20.60
2023-04-12T04:42:05.936Z,27.90
2023-04-12T04:44:44.815Z,24.08
2023-04-12T04:47:14.824Z,26.17
2023-04-12T04:49:53.438Z,22.17
2023-04-12T04:52:27.091Z,19.75
2023-04-12T04:55:01.699Z,19.90
2023-04-12T04:57:29.542Z,23.30
2023-04-12T05:00:11.414Z,21.83
2023-04-12T05:02:49.993Z,19.90
2023-04-12T05:05:22.570Z,19.90
2023-04-12T05:07:55.114Z,16.27
2023-04-12T06:36:02.563Z,7.47
2023-04-12T06:38:29.533Z,11.45
2023-04-12T06:41:10.995Z,5.60
2023-04-12T06:43:47.843Z,5.55
2023-04-12T06:46:18.771Z,8.85
2023-04-12T06:48:45.879Z,5.90
2023-04-12T06:51:24.546Z,6.22
2023-04-12T06:53:56.174Z,6.03
2023-04-12T06:56:26.019Z,4.90
2023-04-12T06:59:02.247Z,5.03
2023-04-12T07:01:29.948Z,7.32
2023-04-12T07:04:03.478Z,4.88
2023-04-12T07:06:44.041Z,6.10
2023-04-12T07:09:13.489Z,4.53
2023-04-12T07:11:45.754Z,4.57
2023-04-12T07:14:20.439Z,4.60
2023-04-12T08:10:18.630Z,3.55
2023-04-12T08:12:45.691Z,4.60
2023-04-12T08:15:14.234Z,3.90
2023-04-12T08:17:49.856Z,4.03
2023-04-12T08:20:22.483Z,3.33
2023-04-12T08:22:56.313Z,5.80
2023-04-12T08:25:48.690Z,4.85
2023-04-12T08:28:16.914Z,3.90
2023-04-12T08:30:44.378Z,4.85
2023-04-12T08:33:11.623Z,3.92
2023-04-12T08:35:58.279Z,3.33
2023-04-12T08:38:41.571Z,4.85
2023-04-12T08:41:13.209Z,6.25
2023-04-12T08:43:57.653Z,5.88
2023-04-12T08:46:25.801Z,6.50
2023-04-12T08:48:58.824Z,10.02
2023-04-12T08:51:32.165Z,5.55
2023-04-12T08:54:08.081Z,4.23
2023-04-12T08:56:36.530Z,3.50
2023-04-12T08:59:04.662Z,5.25
2023-04-12T09:01:31.867Z,3.95
2023-04-12T09:03:59.403Z,3.22
2023-04-12T09:06:26.539Z,3.10
2023-04-12T09:09:00.390Z,4.10
2023-04-12T09:11:30.851Z,2.90
2023-04-12T09:14:03.483Z,4.40
2023-04-12T09:16:45.684Z,6.32
2023-04-12T09:19:14.470Z,3.05
2023-04-12T09:22:01.389Z,4.55
2023-04-12T09:24:45.457Z,5.72
2023-04-12T09:27:12.374Z,3.10
2023-04-12T09:29:52.239Z,3.97
2023-04-12T09:32:29.051Z,3.40
2023-04-12T09:35:03.267Z,3.50
2023-04-12T09:40:10.645Z,6.28
2023-04-12T09:42:53.952Z,4.38
2023-04-12T09:45:30.936Z,4.47
2023-04-12T09:47:58.046Z,4.90
2023-04-12T09:50:29.613Z,2.88
2023-04-12T09:52:58.771Z,3.63
2023-04-12T09:55:35.494Z,5.97
2023-04-12T09:58:04.839Z,3.95
2023-04-12T10:00:53.142Z,3.15
2023-04-12T10:03:23.232Z,3.40
2023-04-12T10:05:56.612Z,2.90
2023-04-12T10:08:26.641Z,3.30
2023-04-12T10:10:57.473Z,6.85
2023-04-12T10:13:27.066Z,2.72
2023-04-12T10:15:57.578Z,4.60
2023-04-12T10:18:31.047Z,2.83
2023-04-12T10:21:05.089Z,3.97
2023-04-12T10:23:33.198Z,3.90
2023-04-12T10:26:06.871Z,3.58
2023-04-12T10:28:47.169Z,8.70
2023-04-12T10:31:34.903Z,5.45
2023-04-12T10:34:30.359Z,3.20
2023-04-12T10:37:02.031Z,3.00
2023-04-12T10:39:53.706Z,3.53
2023-04-12T10:42:30.039Z,3.30
2023-04-12T10:45:48.968Z,3.47
2023-04-12T10:48:55.781Z,3.20
2023-04-12T10:51:33.300Z,3.42
2023-04-12T10:54:12.954Z,2.97
2023-04-12T10:56:55.966Z,4.15
2023-04-12T10:59:34.306Z,4.82
2023-04-12T11:02:16.604Z,5.78
2023-04-12T11:05:13.668Z,7.13
2023-04-12T11:07:48.551Z,4.45
2023-04-12T11:10:29.748Z,3.63
2023-04-12T11:13:14.259Z,4.65
2023-04-12T11:18:48.011Z,7.43
2023-04-12T11:21:21.022Z,4.30
2023-04-12T11:23:58.932Z,5.68
2023-04-12T11:26:31.430Z,4.82
2023-04-12T11:29:06.884Z,2.70
2023-04-12T11:31:37.248Z,6.15
2023-04-12T11:34:09.587Z,3.40
2023-04-12T11:36:58.225Z,4.80
2023-04-12T11:39:52.102Z,4.68
2023-04-12T11:42:31.011Z,4.90
2023-04-12T11:45:05.623Z,3.55
2023-04-12T11:47:52.337Z,4.80
2023-04-12T11:50:33.813Z,4.38
2023-04-12T11:53:13.908Z,3.78
2023-04-12T11:56:01.285Z,4.20
2023-04-12T11:58:28.940Z,3.88
2023-04-12T12:01:00.157Z,3.15
2023-04-12T12:03:31.579Z,3.72
2023-04-12T12:06:10.849Z,2.60
2023-04-12T12:09:12.684Z,3.47
2023-04-12T12:11:56.204Z,3.13
2023-04-12T12:17:27.252Z,3.25
2023-04-12T12:20:12.452Z,5.03
2023-04-12T12:23:08.452Z,2.45
2023-04-12T12:26:14.306Z,7.43
2023-04-12T12:29:03.398Z,6.07
2023-04-12T12:31:35.503Z,3.17
2023-04-12T12:34:28.194Z,4.10
2023-04-12T12:37:08.463Z,4.07
2023-04-12T12:40:19.668Z,5.90
2023-04-12T12:42:55.160Z,4.75
2023-04-12T13:28:09.778Z,3.83
2023-04-12T13:30:36.730Z,6.22
2023-04-12T14:46:31.104Z,9.68
2023-04-12T14:49:20.176Z,9.65
2023-04-12T14:52:03.330Z,10.10
2023-04-12T14:58:07.922Z,8.13
2023-04-12T15:01:07.357Z,6.30
2023-04-12T15:03:36.267Z,6.80
2023-04-12T15:06:03.488Z,6.18
2023-04-12T15:08:58.993Z,5.93
2023-04-12T15:11:28.720Z,7.57
2023-04-12T15:14:23.798Z,4.82
2023-04-12T15:16:59.088Z,5.38
2023-04-12T15:20:10.421Z,5.50
2023-04-12T15:22:53.924Z,5.45
2023-04-12T15:25:50.188Z,4.70
2023-04-12T15:28:17.198Z,5.07
2023-04-12T15:30:58.578Z,6.10
2023-04-12T15:33:47.796Z,5.07
2023-04-12T15:36:20.976Z,4.53
2023-04-12T15:39:14.718Z,4.28
2023-04-12T15:42:01.364Z,5.20
2023-04-12T15:44:43.870Z,5.70
2023-04-12T15:47:12.154Z,4.72
2023-04-12T15:50:15.550Z,4.10
2023-04-12T15:53:10.636Z,5.03
2023-04-12T15:56:04.218Z,3.20
2023-04-12T15:58:34.221Z,3.28
2023-04-12T16:01:15.037Z,3.28
2023-04-12T16:06:31.603Z,2.72
2023-04-12T16:09:06.391Z,2.67
2023-04-12T16:11:38.789Z,5.45
2023-04-12T16:14:05.636Z,4.45
2023-04-12T16:16:59.383Z,9.73
2023-04-12T16:19:26.292Z,5.68
2023-04-12T16:21:57.475Z,6.28
2023-04-12T16:24:25.805Z,10.35
2023-04-12T16:27:00.664Z,6.55
2023-04-12T16:29:27.395Z,21.13
2023-04-12T16:31:59.754Z,6.38
2023-04-12T16:34:26.560Z,8.68
2023-04-12T16:37:02.798Z,5.80
2023-04-12T16:39:34.006Z,7.40
2023-04-12T16:42:08.804Z,7.72
2023-04-12T16:44:44.731Z,7.88
2023-04-12T16:47:14.039Z,7.80
2023-04-12T17:56:30.802Z,10.30
2023-04-12T19:02:08.875Z,10.18
2023-04-12T21:53:57.802Z,6.00
2023-04-12T21:56:26.974Z,7.07
2023-04-12T21:58:56.282Z,8.27
2023-04-12T22:01:35.268Z,6.65
2023-04-12T22:04:09.490Z,6.18
2023-04-12T22:06:47.650Z,6.57
2023-04-12T22:09:27.634Z,8.07
2023-04-12T22:11:57.547Z,5.93
2023-04-12T22:14:28.799Z,6.55
2023-04-12T22:16:57.694Z,6.50
2023-04-12T22:19:28.169Z,6.25
2023-04-12T22:21:58.073Z,6.75
2023-04-12T22:24:26.288Z,6.43
2023-04-12T22:26:58.578Z,6.53
2023-04-12T22:29:27.977Z,10.65
2023-04-12T22:31:55.720Z,5.15
2023-04-12T22:34:23.472Z,5.72
2023-04-12T22:36:51.704Z,5.00
2023-04-12T22:39:24.102Z,4.65
2023-04-12T22:41:57.330Z,4.88
2023-04-12T22:44:47.208Z,4.70
2023-04-12T22:47:44.726Z,4.63
2023-04-12T22:50:16.450Z,3.83
2023-04-12T22:52:54.491Z,4.35
2023-04-12T22:55:27.232Z,3.85
2023-04-12T22:57:58.616Z,3.80
2023-04-12T23:00:27.696Z,3.47
2023-04-12T23:03:18.324Z,3.55
2023-04-12T23:05:53.594Z,4.30
2023-04-12T23:08:22.140Z,4.93
2023-04-12T23:13:44.620Z,4.85
2023-04-12T23:16:13.816Z,4.63
2023-04-12T23:18:51.823Z,4.78
2023-04-12T23:21:27.321Z,4.40
2023-04-12T23:23:57.159Z,4.20
2023-04-12T23:26:29.597Z,4.32
2023-04-12T23:29:00.766Z,4.30
2023-04-12T23:31:27.676Z,4.63
2023-04-12T23:34:11.244Z,6.00
2023-04-12T23:36:38.135Z,6.85
2023-04-12T23:39:25.124Z,7.68
2023-04-12T23:41:58.876Z,6.97
2023-04-12T23:44:27.599Z,11.02
2023-04-12T23:46:54.488Z,8.02
2023-04-12T23:49:21.553Z,8.90
2023-04-12T23:51:48.450Z,9.95
2023-04-12T23:54:18.707Z,9.15
2023-04-12T23:56:47.986Z,11.90
2023-04-12T23:59:21.718Z,12.35
